Decoded Metar for KLBO ( in ) (IATA:) | Meteo·Mobile Aviation Weather
aviador You're here:

KLBO Decoded Metar

in
Report Time2018-10-21 14:15:00
UTC Time2018-10-21 14:17:07
Flight Rules vfr VFR
Wind140° at 08 kt
W.Decomp.*RWY 18: 6.1 kt HW 5.1 kt LCW
W.Rank140° ranks 12
Current wind is above 140° avg. (6.4)
Visibility9999 m
Phenomena:N/A
Clouds:N/A
Expected CloudBase > 2,800 ft AGL from Temp-Dew spread
CeilingNone
Temp04°C
Dew Point-3°C (61% RH)
AAT-1.2°C
QNH1030 hPa
Raw Report
KLBO 211415Z AUTO 14008KT 10SM CLR 04/M03 A3042 RMK AO2=

Extra information for KLBO:More info

Social comments